sensor_id;sensor_type;location;lat;lon;timestamp;P1;durP1;ratioP1;P2;durP2;ratioP2
78406;SDS011;67692;51.074;-1.790;2023-07-16T00:02:04;11.25;;;2.03;;
78406;SDS011;67692;51.074;-1.790;2023-07-16T00:04:31;16.77;;;2.65;;
78406;SDS011;67692;51.074;-1.790;2023-07-16T00:06:59;8.68;;;1.90;;
78406;SDS011;67692;51.074;-1.790;2023-07-16T00:09:26;15.57;;;2.30;;
78406;SDS011;67692;51.074;-1.790;2023-07-16T00:11:53;11.57;;;2.20;;
78406;SDS011;67692;51.074;-1.790;2023-07-16T00:14:21;13.27;;;2.85;;
78406;SDS011;67692;51.074;-1.790;2023-07-16T00:16:48;12.75;;;2.45;;
78406;SDS011;67692;51.074;-1.790;2023-07-16T00:19:14;11.95;;;2.25;;
78406;SDS011;67692;51.074;-1.790;2023-07-16T00:21:41;12.75;;;1.85;;
78406;SDS011;67692;51.074;-1.790;2023-07-16T00:24:08;15.43;;;2.13;;
78406;SDS011;67692;51.074;-1.790;2023-07-16T00:26:34;9.98;;;2.25;;
78406;SDS011;67692;51.074;-1.790;2023-07-16T00:29:01;13.88;;;2.38;;
78406;SDS011;67692;51.074;-1.790;2023-07-16T00:31:29;13.52;;;2.30;;
78406;SDS011;67692;51.074;-1.790;2023-07-16T00:33:55;17.15;;;2.55;;
78406;SDS011;67692;51.074;-1.790;2023-07-16T00:36:22;7.07;;;2.42;;
78406;SDS011;67692;51.074;-1.790;2023-07-16T00:38:48;17.92;;;2.80;;
78406;SDS011;67692;51.074;-1.790;2023-07-16T00:41:15;10.43;;;2.13;;
78406;SDS011;67692;51.074;-1.790;2023-07-16T00:43:42;12.38;;;2.90;;
78406;SDS011;67692;51.074;-1.790;2023-07-16T00:46:08;12.77;;;2.80;;
78406;SDS011;67692;51.074;-1.790;2023-07-16T00:48:38;15.95;;;2.60;;
78406;SDS011;67692;51.074;-1.790;2023-07-16T00:51:06;15.50;;;3.13;;
78406;SDS011;67692;51.074;-1.790;2023-07-16T00:53:33;14.88;;;2.72;;
78406;SDS011;67692;51.074;-1.790;2023-07-16T00:55:59;13.75;;;2.50;;
78406;SDS011;67692;51.074;-1.790;2023-07-16T00:58:27;13.27;;;2.55;;
78406;SDS011;67692;51.074;-1.790;2023-07-16T01:00:53;14.18;;;2.58;;
78406;SDS011;67692;51.074;-1.790;2023-07-16T01:03:20;16.77;;;3.00;;
78406;SDS011;67692;51.074;-1.790;2023-07-16T01:05:49;11.82;;;2.55;;
78406;SDS011;67692;51.074;-1.790;2023-07-16T01:08:20;10.68;;;2.35;;
78406;SDS011;67692;51.074;-1.790;2023-07-16T01:10:53;12.18;;;2.45;;
78406;SDS011;67692;51.074;-1.790;2023-07-16T01:13:21;13.57;;;2.25;;
78406;SDS011;67692;51.074;-1.790;2023-07-16T01:15:48;9.93;;;2.30;;
78406;SDS011;67692;51.074;-1.790;2023-07-16T01:18:15;13.90;;;2.75;;
78406;SDS011;67692;51.074;-1.790;2023-07-16T01:20:41;15.02;;;3.08;;
78406;SDS011;67692;51.074;-1.790;2023-07-16T01:23:12;18.55;;;3.20;;
78406;SDS011;67692;51.074;-1.790;2023-07-16T01:26:00;15.52;;;2.53;;
78406;SDS011;67692;51.074;-1.790;2023-07-16T01:28:44;14.15;;;2.40;;
78406;SDS011;67692;51.074;-1.790;2023-07-16T01:31:33;15.40;;;3.15;;
78406;SDS011;67692;51.074;-1.790;2023-07-16T01:34:00;15.50;;;3.25;;
78406;SDS011;67692;51.074;-1.790;2023-07-16T01:36:30;17.45;;;2.83;;
78406;SDS011;67692;51.074;-1.790;2023-07-16T01:38:58;10.65;;;2.03;;
78406;SDS011;67692;51.074;-1.790;2023-07-16T01:41:25;13.10;;;2.90;;
78406;SDS011;67692;51.074;-1.790;2023-07-16T01:43:51;14.75;;;3.10;;
78406;SDS011;67692;51.074;-1.790;2023-07-16T01:46:19;12.10;;;2.88;;
78406;SDS011;67692;51.074;-1.790;2023-07-16T01:48:46;11.50;;;2.13;;
78406;SDS011;67692;51.074;-1.790;2023-07-16T01:51:13;10.50;;;2.30;;
78406;SDS011;67692;51.074;-1.790;2023-07-16T01:53:40;15.32;;;4.00;;
78406;SDS011;67692;51.074;-1.790;2023-07-16T01:56:06;12.45;;;2.22;;
78406;SDS011;67692;51.074;-1.790;2023-07-16T01:58:33;16.23;;;2.67;;
78406;SDS011;67692;51.074;-1.790;2023-07-16T02:00:59;12.88;;;2.33;;
78406;SDS011;67692;51.074;-1.790;2023-07-16T02:03:27;11.77;;;2.70;;
78406;SDS011;67692;51.074;-1.790;2023-07-16T02:05:54;18.15;;;3.10;;
78406;SDS011;67692;51.074;-1.790;2023-07-16T02:08:21;9.30;;;2.15;;
78406;SDS011;67692;51.074;-1.790;2023-07-16T02:10:48;9.25;;;2.13;;
78406;SDS011;67692;51.074;-1.790;2023-07-16T02:13:14;13.85;;;2.80;;
78406;SDS011;67692;51.074;-1.790;2023-07-16T02:15:41;15.98;;;2.88;;
78406;SDS011;67692;51.074;-1.790;2023-07-16T02:18:08;10.38;;;1.85;;
78406;SDS011;67692;51.074;-1.790;2023-07-16T02:20:36;12.88;;;2.72;;
78406;SDS011;67692;51.074;-1.790;2023-07-16T02:23:03;14.75;;;2.78;;
78406;SDS011;67692;51.074;-1.790;2023-07-16T02:25:29;11.77;;;2.20;;
78406;SDS011;67692;51.074;-1.790;2023-07-16T02:27:56;10.50;;;2.30;;
78406;SDS011;67692;51.074;-1.790;2023-07-16T02:30:22;15.23;;;3.08;;
78406;SDS011;67692;51.074;-1.790;2023-07-16T02:32:49;14.23;;;3.03;;
78406;SDS011;67692;51.074;-1.790;2023-07-16T02:35:17;12.43;;;2.53;;
78406;SDS011;67692;51.074;-1.790;2023-07-16T02:37:45;18.08;;;2.28;;
78406;SDS011;67692;51.074;-1.790;2023-07-16T02:40:11;18.17;;;2.97;;
78406;SDS011;67692;51.074;-1.790;2023-07-16T02:42:38;12.25;;;2.28;;
78406;SDS011;67692;51.074;-1.790;2023-07-16T02:45:05;13.38;;;3.83;;
78406;SDS011;67692;51.074;-1.790;2023-07-16T02:47:33;12.07;;;2.35;;
78406;SDS011;67692;51.074;-1.790;2023-07-16T02:49:59;13.60;;;2.20;;
78406;SDS011;67692;51.074;-1.790;2023-07-16T02:52:26;14.55;;;2.00;;
78406;SDS011;67692;51.074;-1.790;2023-07-16T02:54:54;16.25;;;1.73;;
78406;SDS011;67692;51.074;-1.790;2023-07-16T02:57:21;18.00;;;2.75;;
78406;SDS011;67692;51.074;-1.790;2023-07-16T02:59:48;14.25;;;2.67;;
78406;SDS011;67692;51.074;-1.790;2023-07-16T03:02:14;15.23;;;2.65;;
78406;SDS011;67692;51.074;-1.790;2023-07-16T03:04:41;11.27;;;2.00;;
78406;SDS011;67692;51.074;-1.790;2023-07-16T03:07:07;10.38;;;1.88;;
78406;SDS011;67692;51.074;-1.790;2023-07-16T03:09:34;10.10;;;1.92;;
78406;SDS011;67692;51.074;-1.790;2023-07-16T03:12:02;14.02;;;1.92;;
78406;SDS011;67692;51.074;-1.790;2023-07-16T03:14:29;13.10;;;2.58;;
78406;SDS011;67692;51.074;-1.790;2023-07-16T03:16:55;8.93;;;2.17;;
78406;SDS011;67692;51.074;-1.790;2023-07-16T03:19:22;14.35;;;2.33;;
78406;SDS011;67692;51.074;-1.790;2023-07-16T03:21:49;12.77;;;2.10;;
78406;SDS011;67692;51.074;-1.790;2023-07-16T03:24:15;12.93;;;1.75;;
78406;SDS011;67692;51.074;-1.790;2023-07-16T03:26:42;10.73;;;2.08;;
78406;SDS011;67692;51.074;-1.790;2023-07-16T03:29:10;19.55;;;2.60;;
78406;SDS011;67692;51.074;-1.790;2023-07-16T03:31:36;14.05;;;2.05;;
78406;SDS011;67692;51.074;-1.790;2023-07-16T03:34:03;15.52;;;2.22;;
78406;SDS011;67692;51.074;-1.790;2023-07-16T03:36:29;12.90;;;2.47;;
78406;SDS011;67692;51.074;-1.790;2023-07-16T03:38:56;17.80;;;2.50;;
78406;SDS011;67692;51.074;-1.790;2023-07-16T03:41:22;15.10;;;1.98;;
78406;SDS011;67692;51.074;-1.790;2023-07-16T03:43:49;14.50;;;2.53;;
78406;SDS011;67692;51.074;-1.790;2023-07-16T03:46:17;14.57;;;2.75;;
78406;SDS011;67692;51.074;-1.790;2023-07-16T03:48:44;8.52;;;2.00;;
78406;SDS011;67692;51.074;-1.790;2023-07-16T03:51:11;15.63;;;2.17;;
78406;SDS011;67692;51.074;-1.790;2023-07-16T03:53:37;16.15;;;2.50;;
78406;SDS011;67692;51.074;-1.790;2023-07-16T03:56:04;12.35;;;3.00;;
78406;SDS011;67692;51.074;-1.790;2023-07-16T03:58:31;9.00;;;1.67;;
78406;SDS011;67692;51.074;-1.790;2023-07-16T04:00:57;14.98;;;1.85;;
78406;SDS011;67692;51.074;-1.790;2023-07-16T04:03:25;12.52;;;2.25;;
78406;SDS011;67692;51.074;-1.790;2023-07-16T04:05:52;10.18;;;2.40;;
78406;SDS011;67692;51.074;-1.790;2023-07-16T04:08:27;13.38;;;2.05;;
78406;SDS011;67692;51.074;-1.790;2023-07-16T04:10:54;7.70;;;1.75;;
78406;SDS011;67692;51.074;-1.790;2023-07-16T04:13:20;9.10;;;1.52;;
78406;SDS011;67692;51.074;-1.790;2023-07-16T04:15:47;10.30;;;1.92;;
78406;SDS011;67692;51.074;-1.790;2023-07-16T04:18:13;12.68;;;2.00;;
78406;SDS011;67692;51.074;-1.790;2023-07-16T04:20:41;10.10;;;1.65;;
78406;SDS011;67692;51.074;-1.790;2023-07-16T04:23:08;19.35;;;2.67;;
78406;SDS011;67692;51.074;-1.790;2023-07-16T04:25:35;10.15;;;1.77;;
78406;SDS011;67692;51.074;-1.790;2023-07-16T04:28:01;13.63;;;2.08;;
78406;SDS011;67692;51.074;-1.790;2023-07-16T04:30:29;17.85;;;2.85;;
78406;SDS011;67692;51.074;-1.790;2023-07-16T04:32:56;8.82;;;1.45;;
78406;SDS011;67692;51.074;-1.790;2023-07-16T04:35:22;11.00;;;2.45;;
78406;SDS011;67692;51.074;-1.790;2023-07-16T04:37:50;16.15;;;2.05;;
78406;SDS011;67692;51.074;-1.790;2023-07-16T04:40:17;16.58;;;2.35;;
78406;SDS011;67692;51.074;-1.790;2023-07-16T04:42:44;12.05;;;2.10;;
78406;SDS011;67692;51.074;-1.790;2023-07-16T04:45:10;11.25;;;1.70;;
78406;SDS011;67692;51.074;-1.790;2023-07-16T04:47:37;13.88;;;1.95;;
78406;SDS011;67692;51.074;-1.790;2023-07-16T04:50:04;13.23;;;2.58;;
78406;SDS011;67692;51.074;-1.790;2023-07-16T04:52:32;14.85;;;2.50;;
78406;SDS011;67692;51.074;-1.790;2023-07-16T04:55:00;14.80;;;1.75;;
78406;SDS011;67692;51.074;-1.790;2023-07-16T04:57:26;18.23;;;2.40;;
78406;SDS011;67692;51.074;-1.790;2023-07-16T04:59:53;14.88;;;2.83;;
78406;SDS011;67692;51.074;-1.790;2023-07-16T05:02:20;8.55;;;1.70;;
78406;SDS011;67692;51.074;-1.790;2023-07-16T05:04:47;12.70;;;1.98;;
78406;SDS011;67692;51.074;-1.790;2023-07-16T05:07:14;8.75;;;2.45;;
78406;SDS011;67692;51.074;-1.790;2023-07-16T05:09:41;14.02;;;2.10;;
78406;SDS011;67692;51.074;-1.790;2023-07-16T05:12:09;17.77;;;2.42;;
78406;SDS011;67692;51.074;-1.790;2023-07-16T05:14:42;11.93;;;2.15;;
78406;SDS011;67692;51.074;-1.790;2023-07-16T05:17:10;16.45;;;2.00;;
78406;SDS011;67692;51.074;-1.790;2023-07-16T05:19:37;12.50;;;1.80;;
78406;SDS011;67692;51.074;-1.790;2023-07-16T05:22:03;9.90;;;1.60;;
78406;SDS011;67692;51.074;-1.790;2023-07-16T05:24:31;10.35;;;1.45;;
78406;SDS011;67692;51.074;-1.790;2023-07-16T05:26:57;9.35;;;1.65;;
78406;SDS011;67692;51.074;-1.790;2023-07-16T05:29:25;8.57;;;1.52;;
78406;SDS011;67692;51.074;-1.790;2023-07-16T05:31:52;11.15;;;2.05;;
78406;SDS011;67692;51.074;-1.790;2023-07-16T05:34:18;19.83;;;2.80;;
78406;SDS011;67692;51.074;-1.790;2023-07-16T05:36:45;12.63;;;2.15;;
78406;SDS011;67692;51.074;-1.790;2023-07-16T05:39:11;9.30;;;1.83;;
78406;SDS011;67692;51.074;-1.790;2023-07-16T05:41:38;9.00;;;1.48;;
78406;SDS011;67692;51.074;-1.790;2023-07-16T05:44:06;10.25;;;1.70;;
78406;SDS011;67692;51.074;-1.790;2023-07-16T05:46:34;7.63;;;2.15;;
78406;SDS011;67692;51.074;-1.790;2023-07-16T05:49:01;17.10;;;2.10;;
78406;SDS011;67692;51.074;-1.790;2023-07-16T05:51:27;14.02;;;2.25;;
78406;SDS011;67692;51.074;-1.790;2023-07-16T05:53:54;12.68;;;2.33;;
78406;SDS011;67692;51.074;-1.790;2023-07-16T05:56:21;9.68;;;1.40;;
78406;SDS011;67692;51.074;-1.790;2023-07-16T05:58:47;8.25;;;1.77;;
78406;SDS011;67692;51.074;-1.790;2023-07-16T06:01:14;13.25;;;1.83;;
78406;SDS011;67692;51.074;-1.790;2023-07-16T06:03:42;9.70;;;2.05;;
78406;SDS011;67692;51.074;-1.790;2023-07-16T06:06:08;9.68;;;1.88;;
78406;SDS011;67692;51.074;-1.790;2023-07-16T06:08:35;8.82;;;2.20;;
78406;SDS011;67692;51.074;-1.790;2023-07-16T06:11:02;9.23;;;1.70;;
78406;SDS011;67692;51.074;-1.790;2023-07-16T06:13:29;9.90;;;1.65;;
78406;SDS011;67692;51.074;-1.790;2023-07-16T06:15:55;10.15;;;1.80;;
78406;SDS011;67692;51.074;-1.790;2023-07-16T06:18:22;9.80;;;1.83;;
78406;SDS011;67692;51.074;-1.790;2023-07-16T06:20:50;12.88;;;1.70;;
78406;SDS011;67692;51.074;-1.790;2023-07-16T06:23:17;12.13;;;2.50;;
78406;SDS011;67692;51.074;-1.790;2023-07-16T06:25:44;11.48;;;1.77;;
78406;SDS011;67692;51.074;-1.790;2023-07-16T06:28:14;7.40;;;1.60;;
78406;SDS011;67692;51.074;-1.790;2023-07-16T06:30:40;11.40;;;1.70;;
78406;SDS011;67692;51.074;-1.790;2023-07-16T06:33:07;6.45;;;1.30;;
78406;SDS011;67692;51.074;-1.790;2023-07-16T06:35:34;10.50;;;1.50;;
78406;SDS011;67692;51.074;-1.790;2023-07-16T06:38:02;10.73;;;1.58;;
78406;SDS011;67692;51.074;-1.790;2023-07-16T06:40:28;14.57;;;2.28;;
78406;SDS011;67692;51.074;-1.790;2023-07-16T06:42:55;10.65;;;1.73;;
78406;SDS011;67692;51.074;-1.790;2023-07-16T06:45:21;6.35;;;1.23;;
78406;SDS011;67692;51.074;-1.790;2023-07-16T06:47:48;7.25;;;2.28;;
78406;SDS011;67692;51.074;-1.790;2023-07-16T06:50:15;6.90;;;1.25;;
78406;SDS011;67692;51.074;-1.790;2023-07-16T06:52:41;7.70;;;1.38;;
78406;SDS011;67692;51.074;-1.790;2023-07-16T06:55:09;11.07;;;1.60;;
78406;SDS011;67692;51.074;-1.790;2023-07-16T06:57:36;9.02;;;1.60;;
78406;SDS011;67692;51.074;-1.790;2023-07-16T07:00:03;10.38;;;1.35;;
78406;SDS011;67692;51.074;-1.790;2023-07-16T07:02:30;11.57;;;1.90;;
78406;SDS011;67692;51.074;-1.790;2023-07-16T07:04:57;10.00;;;1.48;;
78406;SDS011;67692;51.074;-1.790;2023-07-16T07:07:23;7.78;;;1.13;;
78406;SDS011;67692;51.074;-1.790;2023-07-16T07:09:50;7.38;;;1.88;;
78406;SDS011;67692;51.074;-1.790;2023-07-16T07:12:18;9.00;;;1.88;;
78406;SDS011;67692;51.074;-1.790;2023-07-16T07:14:45;14.48;;;1.92;;
78406;SDS011;67692;51.074;-1.790;2023-07-16T07:17:13;7.50;;;1.40;;
78406;SDS011;67692;51.074;-1.790;2023-07-16T07:19:39;7.43;;;1.40;;
78406;SDS011;67692;51.074;-1.790;2023-07-16T07:22:07;8.57;;;1.60;;
78406;SDS011;67692;51.074;-1.790;2023-07-16T07:24:33;9.32;;;1.40;;
78406;SDS011;67692;51.074;-1.790;2023-07-16T07:27:00;9.43;;;2.10;;
78406;SDS011;67692;51.074;-1.790;2023-07-16T07:29:28;7.95;;;1.08;;
78406;SDS011;67692;51.074;-1.790;2023-07-16T07:31:54;8.75;;;1.42;;
78406;SDS011;67692;51.074;-1.790;2023-07-16T07:34:21;6.80;;;1.35;;
78406;SDS011;67692;51.074;-1.790;2023-07-16T07:36:48;8.93;;;1.83;;
78406;SDS011;67692;51.074;-1.790;2023-07-16T07:39:14;12.15;;;1.58;;
78406;SDS011;67692;51.074;-1.790;2023-07-16T07:41:41;6.88;;;1.60;;
78406;SDS011;67692;51.074;-1.790;2023-07-16T07:44:08;9.00;;;1.10;;
78406;SDS011;67692;51.074;-1.790;2023-07-16T07:46:36;7.13;;;1.65;;
78406;SDS011;67692;51.074;-1.790;2023-07-16T07:49:02;8.68;;;1.30;;
78406;SDS011;67692;51.074;-1.790;2023-07-16T07:51:29;9.35;;;1.67;;
78406;SDS011;67692;51.074;-1.790;2023-07-16T07:53:55;7.97;;;1.17;;
78406;SDS011;67692;51.074;-1.790;2023-07-16T07:56:22;5.82;;;1.05;;
78406;SDS011;67692;51.074;-1.790;2023-07-16T07:58:48;8.10;;;1.23;;
78406;SDS011;67692;51.074;-1.790;2023-07-16T08:01:15;7.75;;;1.90;;
78406;SDS011;67692;51.074;-1.790;2023-07-16T08:03:43;5.90;;;1.95;;
78406;SDS011;67692;51.074;-1.790;2023-07-16T08:06:09;7.80;;;1.52;;
78406;SDS011;67692;51.074;-1.790;2023-07-16T08:08:37;11.52;;;1.40;;
78406;SDS011;67692;51.074;-1.790;2023-07-16T08:11:04;7.15;;;2.10;;
78406;SDS011;67692;51.074;-1.790;2023-07-16T08:13:31;11.30;;;1.33;;
78406;SDS011;67692;51.074;-1.790;2023-07-16T08:15:58;8.55;;;1.25;;
78406;SDS011;67692;51.074;-1.790;2023-07-16T08:18:24;8.82;;;1.00;;
78406;SDS011;67692;51.074;-1.790;2023-07-16T08:20:52;5.45;;;1.10;;
78406;SDS011;67692;51.074;-1.790;2023-07-16T08:23:19;8.55;;;1.40;;
78406;SDS011;67692;51.074;-1.790;2023-07-16T08:25:45;4.65;;;1.27;;
78406;SDS011;67692;51.074;-1.790;2023-07-16T08:28:12;7.10;;;0.98;;
78406;SDS011;67692;51.074;-1.790;2023-07-16T08:30:40;5.05;;;0.98;;
78406;SDS011;67692;51.074;-1.790;2023-07-16T08:33:06;7.88;;;1.23;;
78406;SDS011;67692;51.074;-1.790;2023-07-16T08:35:33;8.07;;;2.00;;
78406;SDS011;67692;51.074;-1.790;2023-07-16T08:38:01;7.57;;;1.10;;
78406;SDS011;67692;51.074;-1.790;2023-07-16T08:40:27;6.15;;;1.13;;
78406;SDS011;67692;51.074;-1.790;2023-07-16T08:42:54;8.95;;;2.03;;
78406;SDS011;67692;51.074;-1.790;2023-07-16T08:45:22;4.20;;;1.33;;
78406;SDS011;67692;51.074;-1.790;2023-07-16T08:47:54;5.35;;;1.10;;
78406;SDS011;67692;51.074;-1.790;2023-07-16T08:50:21;5.13;;;1.20;;
78406;SDS011;67692;51.074;-1.790;2023-07-16T08:52:50;6.45;;;1.45;;
78406;SDS011;67692;51.074;-1.790;2023-07-16T08:55:18;6.95;;;1.30;;
78406;SDS011;67692;51.074;-1.790;2023-07-16T08:57:45;6.88;;;0.95;;
78406;SDS011;67692;51.074;-1.790;2023-07-16T09:00:12;7.82;;;1.67;;
78406;SDS011;67692;51.074;-1.790;2023-07-16T09:02:43;7.75;;;1.73;;
78406;SDS011;67692;51.074;-1.790;2023-07-16T09:05:10;3.47;;;1.10;;
78406;SDS011;67692;51.074;-1.790;2023-07-16T09:07:37;5.07;;;1.02;;
78406;SDS011;67692;51.074;-1.790;2023-07-16T09:10:04;7.25;;;1.20;;
78406;SDS011;67692;51.074;-1.790;2023-07-16T09:12:33;4.95;;;1.20;;
78406;SDS011;67692;51.074;-1.790;2023-07-16T09:15:00;3.65;;;0.80;;
78406;SDS011;67692;51.074;-1.790;2023-07-16T09:17:27;5.03;;;0.90;;
78406;SDS011;67692;51.074;-1.790;2023-07-16T09:19:53;5.68;;;1.25;;
78406;SDS011;67692;51.074;-1.790;2023-07-16T09:22:20;5.72;;;1.13;;
78406;SDS011;67692;51.074;-1.790;2023-07-16T09:24:48;5.05;;;1.33;;
78406;SDS011;67692;51.074;-1.790;2023-07-16T09:27:15;6.03;;;1.27;;
78406;SDS011;67692;51.074;-1.790;2023-07-16T09:29:43;6.28;;;1.35;;
78406;SDS011;67692;51.074;-1.790;2023-07-16T09:32:09;8.52;;;1.10;;
78406;SDS011;67692;51.074;-1.790;2023-07-16T09:34:36;4.28;;;0.85;;
78406;SDS011;67692;51.074;-1.790;2023-07-16T09:37:04;4.72;;;0.98;;
78406;SDS011;67692;51.074;-1.790;2023-07-16T09:39:31;3.00;;;0.70;;
78406;SDS011;67692;51.074;-1.790;2023-07-16T09:41:58;4.10;;;0.90;;
78406;SDS011;67692;51.074;-1.790;2023-07-16T09:44:25;5.88;;;0.95;;
78406;SDS011;67692;51.074;-1.790;2023-07-16T09:46:54;4.82;;;1.00;;
78406;SDS011;67692;51.074;-1.790;2023-07-16T09:49:20;3.42;;;0.88;;
78406;SDS011;67692;51.074;-1.790;2023-07-16T09:51:47;5.05;;;1.00;;
78406;SDS011;67692;51.074;-1.790;2023-07-16T09:54:14;4.22;;;0.90;;
78406;SDS011;67692;51.074;-1.790;2023-07-16T09:56:43;5.88;;;0.85;;
78406;SDS011;67692;51.074;-1.790;2023-07-16T09:59:13;7.82;;;1.58;;
78406;SDS011;67692;51.074;-1.790;2023-07-16T10:01:42;4.68;;;0.85;;
78406;SDS011;67692;51.074;-1.790;2023-07-16T10:04:13;4.55;;;0.88;;
78406;SDS011;67692;51.074;-1.790;2023-07-16T10:06:54;4.70;;;0.90;;
78406;SDS011;67692;51.074;-1.790;2023-07-16T10:09:34;2.97;;;1.00;;
78406;SDS011;67692;51.074;-1.790;2023-07-16T10:12:11;3.65;;;0.77;;
78406;SDS011;67692;51.074;-1.790;2023-07-16T10:14:39;4.75;;;1.23;;
78406;SDS011;67692;51.074;-1.790;2023-07-16T10:17:06;3.60;;;1.02;;
78406;SDS011;67692;51.074;-1.790;2023-07-16T10:19:45;5.38;;;1.30;;
78406;SDS011;67692;51.074;-1.790;2023-07-16T10:22:13;8.73;;;0.98;;
78406;SDS011;67692;51.074;-1.790;2023-07-16T10:24:40;6.88;;;1.13;;
78406;SDS011;67692;51.074;-1.790;2023-07-16T10:27:06;6.22;;;1.38;;
78406;SDS011;67692;51.074;-1.790;2023-07-16T10:29:33;3.15;;;0.90;;
78406;SDS011;67692;51.074;-1.790;2023-07-16T10:32:01;9.05;;;0.95;;
78406;SDS011;67692;51.074;-1.790;2023-07-16T10:34:28;6.03;;;0.90;;
78406;SDS011;67692;51.074;-1.790;2023-07-16T10:36:56;4.18;;;0.90;;
78406;SDS011;67692;51.074;-1.790;2023-07-16T10:39:23;5.55;;;1.02;;
78406;SDS011;67692;51.074;-1.790;2023-07-16T10:41:49;7.57;;;1.23;;
78406;SDS011;67692;51.074;-1.790;2023-07-16T10:44:16;8.23;;;1.35;;
78406;SDS011;67692;51.074;-1.790;2023-07-16T10:46:43;5.05;;;0.90;;
78406;SDS011;67692;51.074;-1.790;2023-07-16T10:49:09;4.82;;;1.40;;
78406;SDS011;67692;51.074;-1.790;2023-07-16T10:51:36;6.95;;;1.20;;
78406;SDS011;67692;51.074;-1.790;2023-07-16T10:54:04;7.53;;;1.20;;
78406;SDS011;67692;51.074;-1.790;2023-07-16T10:56:33;6.80;;;0.98;;
78406;SDS011;67692;51.074;-1.790;2023-07-16T10:59:02;2.85;;;0.90;;
78406;SDS011;67692;51.074;-1.790;2023-07-16T11:01:29;6.72;;;1.00;;
78406;SDS011;67692;51.074;-1.790;2023-07-16T11:03:59;7.70;;;1.45;;
78406;SDS011;67692;51.074;-1.790;2023-07-16T11:06:27;6.70;;;1.00;;
78406;SDS011;67692;51.074;-1.790;2023-07-16T11:08:53;7.05;;;1.10;;
78406;SDS011;67692;51.074;-1.790;2023-07-16T11:11:30;5.97;;;1.27;;
78406;SDS011;67692;51.074;-1.790;2023-07-16T11:13:57;5.28;;;0.98;;
78406;SDS011;67692;51.074;-1.790;2023-07-16T11:16:23;6.75;;;1.20;;
78406;SDS011;67692;51.074;-1.790;2023-07-16T11:18:50;4.38;;;1.13;;
78406;SDS011;67692;51.074;-1.790;2023-07-16T11:21:18;6.22;;;1.10;;
78406;SDS011;67692;51.074;-1.790;2023-07-16T11:23:45;5.22;;;1.02;;
78406;SDS011;67692;51.074;-1.790;2023-07-16T11:26:12;8.55;;;1.30;;
78406;SDS011;67692;51.074;-1.790;2023-07-16T11:28:42;4.97;;;1.00;;
78406;SDS011;67692;51.074;-1.790;2023-07-16T11:31:13;4.32;;;1.10;;
78406;SDS011;67692;51.074;-1.790;2023-07-16T11:33:41;4.25;;;1.05;;
78406;SDS011;67692;51.074;-1.790;2023-07-16T11:36:09;7.43;;;1.30;;
78406;SDS011;67692;51.074;-1.790;2023-07-16T11:38:36;6.78;;;1.85;;
78406;SDS011;67692;51.074;-1.790;2023-07-16T11:41:03;5.18;;;1.23;;
78406;SDS011;67692;51.074;-1.790;2023-07-16T11:43:33;7.13;;;1.27;;
78406;SDS011;67692;51.074;-1.790;2023-07-16T11:46:02;7.78;;;1.30;;
78406;SDS011;67692;51.074;-1.790;2023-07-16T11:48:29;9.20;;;1.20;;
78406;SDS011;67692;51.074;-1.790;2023-07-16T11:50:55;5.28;;;1.45;;
78406;SDS011;67692;51.074;-1.790;2023-07-16T11:53:22;7.70;;;1.60;;
78406;SDS011;67692;51.074;-1.790;2023-07-16T11:55:49;7.97;;;1.58;;
78406;SDS011;67692;51.074;-1.790;2023-07-16T11:58:15;8.02;;;1.85;;
78406;SDS011;67692;51.074;-1.790;2023-07-16T12:00:42;6.40;;;1.10;;
78406;SDS011;67692;51.074;-1.790;2023-07-16T12:03:10;7.90;;;1.65;;
78406;SDS011;67692;51.074;-1.790;2023-07-16T12:05:36;9.45;;;2.45;;
78406;SDS011;67692;51.074;-1.790;2023-07-16T12:08:03;10.40;;;1.40;;
78406;SDS011;67692;51.074;-1.790;2023-07-16T12:10:30;8.57;;;1.70;;
78406;SDS011;67692;51.074;-1.790;2023-07-16T12:12:57;6.88;;;1.30;;
78406;SDS011;67692;51.074;-1.790;2023-07-16T12:15:23;4.32;;;1.27;;
78406;SDS011;67692;51.074;-1.790;2023-07-16T12:17:50;7.00;;;1.55;;
78406;SDS011;67692;51.074;-1.790;2023-07-16T12:20:18;6.57;;;1.30;;
78406;SDS011;67692;51.074;-1.790;2023-07-16T12:22:45;7.25;;;1.40;;
78406;SDS011;67692;51.074;-1.790;2023-07-16T12:25:11;6.28;;;1.13;;
78406;SDS011;67692;51.074;-1.790;2023-07-16T12:27:38;12.38;;;1.58;;
78406;SDS011;67692;51.074;-1.790;2023-07-16T12:30:05;5.38;;;1.35;;
78406;SDS011;67692;51.074;-1.790;2023-07-16T12:32:33;9.23;;;1.42;;
78406;SDS011;67692;51.074;-1.790;2023-07-16T12:34:59;5.15;;;1.42;;
78406;SDS011;67692;51.074;-1.790;2023-07-16T12:37:28;6.00;;;1.48;;
78406;SDS011;67692;51.074;-1.790;2023-07-16T12:39:54;7.85;;;1.60;;
78406;SDS011;67692;51.074;-1.790;2023-07-16T12:42:21;9.00;;;1.40;;
78406;SDS011;67692;51.074;-1.790;2023-07-16T12:44:47;4.40;;;1.10;;
78406;SDS011;67692;51.074;-1.790;2023-07-16T12:47:15;4.35;;;1.10;;
78406;SDS011;67692;51.074;-1.790;2023-07-16T12:49:42;5.82;;;1.33;;
78406;SDS011;67692;51.074;-1.790;2023-07-16T12:52:08;7.13;;;1.50;;
78406;SDS011;67692;51.074;-1.790;2023-07-16T12:54:37;6.10;;;1.38;;
78406;SDS011;67692;51.074;-1.790;2023-07-16T12:57:03;4.53;;;1.30;;
78406;SDS011;67692;51.074;-1.790;2023-07-16T12:59:31;5.38;;;1.20;;
78406;SDS011;67692;51.074;-1.790;2023-07-16T13:01:57;7.22;;;1.38;;
78406;SDS011;67692;51.074;-1.790;2023-07-16T13:04:24;7.25;;;1.98;;
78406;SDS011;67692;51.074;-1.790;2023-07-16T13:06:50;4.65;;;1.35;;
78406;SDS011;67692;51.074;-1.790;2023-07-16T13:09:18;3.92;;;1.17;;
78406;SDS011;67692;51.074;-1.790;2023-07-16T13:11:46;4.20;;;1.27;;
78406;SDS011;67692;51.074;-1.790;2023-07-16T13:14:13;5.38;;;1.20;;
78406;SDS011;67692;51.074;-1.790;2023-07-16T13:16:39;5.70;;;1.27;;
78406;SDS011;67692;51.074;-1.790;2023-07-16T13:19:06;3.40;;;1.17;;
78406;SDS011;67692;51.074;-1.790;2023-07-16T13:21:32;5.60;;;1.38;;
78406;SDS011;67692;51.074;-1.790;2023-07-16T13:23:59;12.20;;;2.35;;
78406;SDS011;67692;51.074;-1.790;2023-07-16T13:26:25;7.85;;;1.50;;
78406;SDS011;67692;51.074;-1.790;2023-07-16T13:28:53;6.80;;;1.77;;
78406;SDS011;67692;51.074;-1.790;2023-07-16T13:31:20;7.47;;;1.50;;
78406;SDS011;67692;51.074;-1.790;2023-07-16T13:33:46;6.97;;;1.40;;
78406;SDS011;67692;51.074;-1.790;2023-07-16T13:36:13;8.27;;;1.35;;
78406;SDS011;67692;51.074;-1.790;2023-07-16T13:38:40;8.50;;;1.58;;
78406;SDS011;67692;51.074;-1.790;2023-07-16T13:41:07;7.90;;;1.90;;
78406;SDS011;67692;51.074;-1.790;2023-07-16T13:43:33;5.88;;;1.30;;
78406;SDS011;67692;51.074;-1.790;2023-07-16T13:46:01;4.68;;;1.65;;
78406;SDS011;67692;51.074;-1.790;2023-07-16T13:48:28;4.03;;;1.45;;
78406;SDS011;67692;51.074;-1.790;2023-07-16T13:50:54;5.20;;;1.50;;
78406;SDS011;67692;51.074;-1.790;2023-07-16T13:53:21;4.40;;;1.38;;
78406;SDS011;67692;51.074;-1.790;2023-07-16T13:55:48;8.30;;;1.70;;
78406;SDS011;67692;51.074;-1.790;2023-07-16T13:58:14;8.52;;;1.90;;
78406;SDS011;67692;51.074;-1.790;2023-07-16T14:00:41;5.60;;;1.17;;
78406;SDS011;67692;51.074;-1.790;2023-07-16T14:03:09;7.18;;;1.48;;
78406;SDS011;67692;51.074;-1.790;2023-07-16T14:05:35;6.60;;;2.05;;
78406;SDS011;67692;51.074;-1.790;2023-07-16T14:08:03;6.70;;;1.73;;
78406;SDS011;67692;51.074;-1.790;2023-07-16T14:10:30;9.93;;;1.67;;
78406;SDS011;67692;51.074;-1.790;2023-07-16T14:12:57;4.95;;;1.13;;
78406;SDS011;67692;51.074;-1.790;2023-07-16T14:15:23;6.07;;;1.30;;
78406;SDS011;67692;51.074;-1.790;2023-07-16T14:17:50;6.20;;;1.50;;
78406;SDS011;67692;51.074;-1.790;2023-07-16T14:20:18;5.47;;;1.58;;
78406;SDS011;67692;51.074;-1.790;2023-07-16T14:22:45;4.28;;;1.45;;
78406;SDS011;67692;51.074;-1.790;2023-07-16T14:25:11;6.32;;;1.27;;
78406;SDS011;67692;51.074;-1.790;2023-07-16T14:27:38;6.25;;;1.23;;
78406;SDS011;67692;51.074;-1.790;2023-07-16T14:30:05;4.00;;;1.25;;